createdAt,value
2023-11-18T00:02:40.237Z,94.21
2023-11-18T00:05:31.176Z,94.32
2023-11-18T00:08:21.917Z,94.26
2023-11-18T00:11:12.650Z,94.40
2023-11-18T00:14:05.884Z,94.37
2023-11-18T00:16:56.740Z,94.39
2023-11-18T00:19:48.596Z,94.38
2023-11-18T00:22:40.790Z,94.43
2023-11-18T00:25:32.823Z,94.49
2023-11-18T00:28:23.735Z,94.54
2023-11-18T00:31:14.602Z,94.57
2023-11-18T00:34:05.563Z,94.61
2023-11-18T00:37:00.213Z,94.63
2023-11-18T00:39:50.942Z,94.67
2023-11-18T00:42:41.645Z,94.76
2023-11-18T00:45:32.384Z,94.76
2023-11-18T00:48:23.241Z,94.60
2023-11-18T00:51:14.130Z,94.56
2023-11-18T00:54:08.966Z,94.65
2023-11-18T00:56:59.750Z,94.74
2023-11-18T00:59:51.118Z,94.76
2023-11-18T01:02:43.633Z,94.74
2023-11-18T01:05:34.389Z,94.79
2023-11-18T01:08:25.999Z,94.78
2023-11-18T01:11:21.063Z,94.65
2023-11-18T01:14:12.967Z,94.69
2023-11-18T01:17:04.179Z,94.76
2023-11-18T01:19:54.999Z,94.72
2023-11-18T01:22:46.969Z,94.74
2023-11-18T01:25:37.806Z,94.74
2023-11-18T01:28:30.601Z,94.86
2023-11-18T01:31:21.443Z,94.80
2023-11-18T01:34:13.412Z,94.81
2023-11-18T01:37:05.978Z,94.90
2023-11-18T01:39:56.674Z,94.87
2023-11-18T01:42:47.976Z,94.91
2023-11-18T01:45:38.907Z,94.97
2023-11-18T01:48:32.057Z,95.00
2023-11-18T01:51:24.628Z,94.88
2023-11-18T01:54:20.082Z,94.91
2023-11-18T01:57:11.352Z,95.01
2023-11-18T02:00:07.099Z,94.99
2023-11-18T02:02:57.952Z,94.93
2023-11-18T02:05:48.896Z,94.93
2023-11-18T02:08:39.926Z,94.92
2023-11-18T02:11:43.948Z,94.90
2023-11-18T02:14:38.370Z,94.84
2023-11-18T02:17:30.578Z,94.84
2023-11-18T02:20:22.530Z,94.84
2023-11-18T02:23:13.398Z,94.80
2023-11-18T02:26:04.559Z,94.81
2023-11-18T02:28:55.360Z,94.77
2023-11-18T02:31:47.981Z,94.83
2023-11-18T02:34:52.728Z,94.95
2023-11-18T02:37:48.993Z,95.03
2023-11-18T02:40:44.529Z,95.02
2023-11-18T02:43:38.411Z,95.05
2023-11-18T02:46:29.416Z,95.14
2023-11-18T02:49:20.194Z,95.14
2023-11-18T02:52:11.126Z,95.07
2023-11-18T02:55:01.983Z,95.11
2023-11-18T02:57:55.461Z,95.10
2023-11-18T03:00:46.338Z,95.11
2023-11-18T03:03:37.692Z,95.19
2023-11-18T03:06:28.454Z,95.14
2023-11-18T03:09:19.955Z,95.21
2023-11-18T03:12:11.041Z,95.19
2023-11-18T03:15:02.162Z,95.19
2023-11-18T03:17:53.635Z,95.15
2023-11-18T03:20:44.586Z,95.16
2023-11-18T03:23:35.416Z,95.12
2023-11-18T03:26:27.304Z,95.05
2023-11-18T03:29:18.437Z,94.96
2023-11-18T03:32:09.243Z,94.94
2023-11-18T03:35:03.463Z,94.97
2023-11-18T03:37:54.713Z,94.96
2023-11-18T03:40:46.327Z,94.99
2023-11-18T03:43:39.027Z,94.98
2023-11-18T03:46:35.593Z,94.98
2023-11-18T03:49:26.662Z,94.98
2023-11-18T03:52:17.365Z,94.98
2023-11-18T03:55:09.411Z,95.09
2023-11-18T03:58:00.376Z,94.99
2023-11-18T04:00:51.175Z,94.91
2023-11-18T04:03:43.142Z,94.89
2023-11-18T04:06:33.902Z,94.89
2023-11-18T04:09:24.740Z,94.90
2023-11-18T04:12:17.513Z,95.01
2023-11-18T04:15:08.890Z,94.93
2023-11-18T04:17:59.715Z,95.04
2023-11-18T04:20:51.820Z,94.96
2023-11-18T04:23:43.962Z,94.94
2023-11-18T04:26:34.785Z,94.98
2023-11-18T04:29:25.536Z,95.01
2023-11-18T04:32:17.111Z,94.94
2023-11-18T04:35:08.500Z,94.98
2023-11-18T04:37:59.550Z,95.06
2023-11-18T04:40:50.898Z,95.10
2023-11-18T04:43:45.923Z,95.03
2023-11-18T04:46:38.354Z,95.11
2023-11-18T04:49:29.326Z,95.09
2023-11-18T04:52:20.126Z,95.13
2023-11-18T04:55:13.992Z,95.15
2023-11-18T04:58:07.031Z,95.15
2023-11-18T05:00:57.914Z,95.18
2023-11-18T05:03:48.883Z,95.19
2023-11-18T05:06:39.833Z,95.14
2023-11-18T05:09:30.632Z,95.05
2023-11-18T05:12:21.479Z,95.04
2023-11-18T05:15:12.205Z,95.07
2023-11-18T05:18:03.075Z,95.17
2023-11-18T05:20:55.580Z,95.13
2023-11-18T05:23:46.344Z,95.09
2023-11-18T05:26:37.059Z,95.13
2023-11-18T05:29:29.020Z,95.02
2023-11-18T05:32:21.633Z,94.99
2023-11-18T05:35:13.165Z,94.96
2023-11-18T05:38:07.562Z,94.91
2023-11-18T05:40:58.550Z,94.86
2023-11-18T05:43:52.816Z,94.96
2023-11-18T05:46:47.499Z,94.79
2023-11-18T05:49:39.467Z,94.61
2023-11-18T05:52:30.186Z,94.52
2023-11-18T05:55:21.358Z,94.61
2023-11-18T05:58:12.188Z,94.71
2023-11-18T06:01:03.548Z,94.77
2023-11-18T06:03:54.708Z,94.92
2023-11-18T06:06:45.568Z,94.88
2023-11-18T06:09:36.306Z,94.94
2023-11-18T06:12:28.039Z,94.99
2023-11-18T06:15:20.141Z,94.99
2023-11-18T06:18:11.158Z,95.01
2023-11-18T06:21:02.004Z,95.07
2023-11-18T06:23:53.035Z,95.03
2023-11-18T06:26:43.839Z,94.99
2023-11-18T06:29:34.602Z,94.98
2023-11-18T06:32:26.994Z,95.11
2023-11-18T06:35:17.803Z,95.15
2023-11-18T06:38:08.808Z,95.10
2023-11-18T06:41:01.097Z,95.03
2023-11-18T06:44:00.779Z,94.89
2023-11-18T06:46:52.403Z,94.95
2023-11-18T06:49:43.347Z,94.97
2023-11-18T06:52:39.724Z,94.92
2023-11-18T06:55:30.969Z,94.91
2023-11-18T06:58:21.709Z,95.01
2023-11-18T07:01:16.790Z,95.04
2023-11-18T07:04:10.965Z,95.05
2023-11-18T07:07:02.935Z,95.12
2023-11-18T07:09:53.668Z,95.09
2023-11-18T07:12:44.342Z,95.05
2023-11-18T07:15:35.437Z,95.08
2023-11-18T07:18:26.209Z,95.10
2023-11-18T07:21:16.904Z,95.03
2023-11-18T07:24:08.297Z,94.88
2023-11-18T07:27:01.198Z,94.91
2023-11-18T07:29:52.437Z,94.94
2023-11-18T07:32:43.208Z,94.93
2023-11-18T07:35:33.900Z,94.91
2023-11-18T07:38:24.730Z,94.82
2023-11-18T07:41:24.747Z,94.72
2023-11-18T07:44:17.296Z,94.74
2023-11-18T07:47:08.384Z,94.68
2023-11-18T07:50:00.538Z,94.85
2023-11-18T07:52:51.980Z,94.88
2023-11-18T07:55:43.411Z,94.89
2023-11-18T07:58:38.395Z,94.89
2023-11-18T08:01:29.216Z,94.89
2023-11-18T08:04:22.095Z,94.90
2023-11-18T08:07:13.065Z,94.80
2023-11-18T08:10:07.279Z,94.74
2023-11-18T08:12:58.020Z,94.81
2023-11-18T08:15:48.782Z,94.81
2023-11-18T08:18:40.345Z,94.86
2023-11-18T08:21:31.565Z,94.81
2023-11-18T08:24:23.023Z,94.81
2023-11-18T08:27:13.729Z,94.74
2023-11-18T08:30:12.237Z,94.81
2023-11-18T08:33:06.677Z,94.87
2023-11-18T08:35:57.884Z,94.86
2023-11-18T08:38:48.640Z,94.75
2023-11-18T08:41:39.955Z,94.61
2023-11-18T08:44:30.857Z,94.54
2023-11-18T08:47:22.233Z,94.51
2023-11-18T08:50:15.733Z,94.47
2023-11-18T08:53:06.996Z,94.49
2023-11-18T08:55:57.959Z,94.53
2023-11-18T08:58:50.693Z,94.29
2023-11-18T09:01:43.505Z,94.37
2023-11-18T09:04:34.949Z,94.29
2023-11-18T09:07:25.725Z,94.33
2023-11-18T09:10:18.203Z,94.25
2023-11-18T09:13:09.120Z,94.26
2023-11-18T09:16:03.690Z,94.14
2023-11-18T09:18:54.623Z,94.06
2023-11-18T09:21:45.710Z,94.05
2023-11-18T09:24:37.857Z,94.09
2023-11-18T09:27:30.380Z,94.16
2023-11-18T09:30:21.132Z,94.20
2023-11-18T09:33:15.422Z,94.10
2023-11-18T09:36:09.040Z,94.06
2023-11-18T09:39:00.549Z,93.93
2023-11-18T09:41:52.704Z,93.94
2023-11-18T09:44:45.158Z,93.98
2023-11-18T09:47:48.593Z,94.00
2023-11-18T09:50:39.809Z,93.94
2023-11-18T09:53:38.220Z,94.02
2023-11-18T09:56:45.013Z,93.93
2023-11-18T10:00:00.425Z,93.93
2023-11-18T10:02:52.874Z,94.02
2023-11-18T10:05:45.380Z,94.04
2023-11-18T10:08:39.302Z,94.01
2023-11-18T10:11:30.547Z,94.16
2023-11-18T10:14:21.270Z,94.01
2023-11-18T10:17:15.829Z,94.12
2023-11-18T10:20:14.439Z,94.07
2023-11-18T10:23:12.626Z,93.91
2023-11-18T10:26:05.270Z,93.70
2023-11-18T10:28:56.157Z,93.72
2023-11-18T10:31:47.110Z,93.56
2023-11-18T10:34:38.846Z,93.54
2023-11-18T10:37:32.669Z,93.48
2023-11-18T10:40:25.290Z,93.41
2023-11-18T10:43:18.137Z,93.34
2023-11-18T10:46:14.864Z,93.11
2023-11-18T10:49:11.124Z,93.03
2023-11-18T10:52:05.218Z,92.96
2023-11-18T10:54:57.279Z,92.93
2023-11-18T10:57:48.116Z,92.99
2023-11-18T11:00:54.503Z,92.82
2023-11-18T11:03:57.322Z,92.90
2023-11-18T11:06:54.924Z,92.91
2023-11-18T11:09:47.207Z,92.83
2023-11-18T11:12:54.264Z,92.75
2023-11-18T11:15:52.163Z,92.77
2023-11-18T11:18:54.630Z,92.80
2023-11-18T11:21:56.667Z,92.72
2023-11-18T11:25:10.516Z,92.76
2023-11-18T11:28:16.754Z,92.74
2023-11-18T11:31:19.474Z,92.80
2023-11-18T11:34:21.666Z,92.81
2023-11-18T11:37:13.359Z,92.69
2023-11-18T11:40:11.265Z,92.59
2023-11-18T11:43:05.992Z,92.47
2023-11-18T11:45:57.074Z,92.49
2023-11-18T11:48:49.069Z,92.51
2023-11-18T11:52:04.673Z,92.47
2023-11-18T11:55:14.449Z,92.38
2023-11-18T11:58:07.663Z,92.37
2023-11-18T12:01:08.713Z,92.22
2023-11-18T12:04:08.299Z,92.22
2023-11-18T12:07:09.239Z,92.27
2023-11-18T12:10:14.824Z,92.40
2023-11-18T12:13:22.518Z,92.30
2023-11-18T12:16:17.568Z,92.38
2023-11-18T12:19:45.921Z,92.32
2023-11-18T12:23:16.132Z,92.26
2023-11-18T12:26:41.420Z,92.18
2023-11-18T12:29:35.366Z,92.10
2023-11-18T12:32:57.201Z,92.11
2023-11-18T12:36:02.672Z,92.17
2023-11-18T12:39:52.093Z,92.20
2023-11-18T12:43:11.613Z,92.23
2023-11-18T12:46:46.205Z,92.11
2023-11-18T12:49:42.282Z,92.12
2023-11-18T12:52:34.182Z,92.08
2023-11-18T12:55:27.646Z,92.10
2023-11-18T12:58:19.237Z,92.02
2023-11-18T13:01:15.451Z,92.15
2023-11-18T13:04:06.648Z,92.21
2023-11-18T13:06:59.324Z,92.22
2023-11-18T13:09:50.904Z,92.26
2023-11-18T13:12:43.608Z,92.23
2023-11-18T13:15:35.526Z,92.23
2023-11-18T13:18:27.766Z,92.16
2023-11-18T13:21:21.546Z,92.25
2023-11-18T13:24:13.361Z,92.22
2023-11-18T13:27:05.513Z,92.08
2023-11-18T13:29:56.406Z,92.11
2023-11-18T13:32:47.460Z,91.97
2023-11-18T13:35:38.375Z,91.97
2023-11-18T13:38:30.473Z,92.04
2023-11-18T13:41:33.767Z,92.11
2023-11-18T13:44:40.698Z,92.10
2023-11-18T13:47:33.729Z,92.08
2023-11-18T13:50:26.204Z,92.13
2023-11-18T13:53:17.395Z,92.14
2023-11-18T13:56:10.345Z,92.15
2023-11-18T13:59:01.316Z,92.04
2023-11-18T14:01:57.442Z,92.03
2023-11-18T14:04:49.737Z,92.09
2023-11-18T14:07:40.910Z,92.07
2023-11-18T14:10:31.664Z,92.07
2023-11-18T14:13:23.323Z,92.13
2023-11-18T14:16:14.504Z,92.06
2023-11-18T14:19:06.867Z,92.06
2023-11-18T14:21:58.604Z,92.03
2023-11-18T14:24:49.406Z,92.07
2023-11-18T14:27:40.136Z,92.07
2023-11-18T14:30:31.461Z,92.10
2023-11-18T14:33:22.228Z,92.08
2023-11-18T14:36:12.962Z,92.23
2023-11-18T14:39:04.591Z,92.19
2023-11-18T14:41:55.615Z,92.25
2023-11-18T14:44:46.424Z,92.22
2023-11-18T14:47:37.304Z,92.28
2023-11-18T14:50:28.890Z,92.36
2023-11-18T14:53:20.457Z,92.27
2023-11-18T14:56:11.879Z,92.34
2023-11-18T14:59:02.662Z,92.36
2023-11-18T15:01:58.212Z,92.32
2023-11-18T15:04:49.484Z,92.29
2023-11-18T15:07:40.633Z,92.40
2023-11-18T15:10:31.438Z,92.38
2023-11-18T15:13:22.162Z,92.37
2023-11-18T15:16:12.987Z,92.28
2023-11-18T15:19:04.633Z,92.34
2023-11-18T15:21:55.324Z,92.38
2023-11-18T15:24:48.762Z,92.45
2023-11-18T15:27:45.530Z,92.46
2023-11-18T15:30:40.877Z,92.45
2023-11-18T15:33:32.830Z,92.32
2023-11-18T15:36:24.468Z,92.35
2023-11-18T15:39:16.060Z,92.51
2023-11-18T15:42:07.020Z,92.41
2023-11-18T15:44:58.465Z,92.48
2023-11-18T15:47:50.495Z,92.37
2023-11-18T15:50:41.274Z,92.37
2023-11-18T15:53:32.052Z,92.30
2023-11-18T15:56:23.939Z,92.25
2023-11-18T15:59:15.512Z,92.24
2023-11-18T16:02:06.883Z,92.26
2023-11-18T16:04:57.789Z,92.28
2023-11-18T16:07:55.500Z,92.22
2023-11-18T16:10:46.502Z,92.32
2023-11-18T16:13:37.263Z,92.38
2023-11-18T16:16:28.651Z,92.43
2023-11-18T16:19:20.962Z,92.38
2023-11-18T16:22:11.739Z,92.52
2023-11-18T16:25:05.248Z,92.44
2023-11-18T16:27:59.535Z,92.43
2023-11-18T16:30:51.964Z,92.32
2023-11-18T16:33:44.570Z,92.32
2023-11-18T16:36:35.383Z,92.34
2023-11-18T16:39:27.271Z,92.38
2023-11-18T16:42:20.134Z,92.35
2023-11-18T16:45:12.611Z,92.16
2023-11-18T16:48:05.723Z,92.27
2023-11-18T16:50:56.628Z,92.19
2023-11-18T16:53:47.383Z,92.25
2023-11-18T16:56:38.140Z,92.34
2023-11-18T16:59:29.051Z,92.25
2023-11-18T17:02:20.546Z,92.20
2023-11-18T17:05:11.536Z,91.99
2023-11-18T17:08:02.832Z,92.10
2023-11-18T17:10:55.051Z,92.13
2023-11-18T17:13:46.011Z,92.07
2023-11-18T17:16:36.703Z,92.12
2023-11-18T17:19:27.560Z,92.09
2023-11-18T17:22:18.290Z,92.01
2023-11-18T17:25:11.756Z,92.01
2023-11-18T17:28:05.674Z,91.97
2023-11-18T17:30:56.847Z,91.96
2023-11-18T17:33:47.565Z,91.86
2023-11-18T17:36:38.358Z,91.74
2023-11-18T17:39:29.129Z,91.69
2023-11-18T17:42:19.950Z,91.65
2023-11-18T17:45:13.102Z,91.64
2023-11-18T17:48:07.348Z,91.59
2023-11-18T17:51:00.059Z,91.46
2023-11-18T17:53:50.929Z,91.55
2023-11-18T17:56:42.633Z,91.59
2023-11-18T17:59:33.410Z,91.59
2023-11-18T18:02:24.320Z,91.56
2023-11-18T18:05:15.204Z,91.54
2023-11-18T18:08:06.299Z,91.54
2023-11-18T18:10:57.117Z,91.64
2023-11-18T18:13:47.853Z,91.77
2023-11-18T18:16:38.584Z,91.69
2023-11-18T18:19:29.325Z,91.75
2023-11-18T18:22:20.079Z,91.81
2023-11-18T18:25:11.129Z,91.82
2023-11-18T18:28:02.056Z,91.74
2023-11-18T18:30:54.595Z,91.73
2023-11-18T18:33:45.735Z,91.72
2023-11-18T18:36:37.304Z,91.83
2023-11-18T18:39:28.084Z,91.87
2023-11-18T18:42:18.843Z,91.80
2023-11-18T18:45:11.465Z,91.77
2023-11-18T18:48:03.455Z,91.81
2023-11-18T18:50:54.221Z,91.88
2023-11-18T18:53:46.640Z,91.86
2023-11-18T18:56:39.164Z,91.79
2023-11-18T18:59:30.051Z,91.78
2023-11-18T19:02:21.934Z,91.78
2023-11-18T19:05:15.832Z,91.78
2023-11-18T19:08:06.593Z,91.72
2023-11-18T19:10:57.736Z,91.64
2023-11-18T19:13:48.522Z,91.44
2023-11-18T19:16:41.990Z,91.30
2023-11-18T19:19:34.170Z,91.24
2023-11-18T19:22:25.520Z,91.18
2023-11-18T19:25:17.063Z,91.02
2023-11-18T19:28:10.591Z,91.06
2023-11-18T19:31:01.445Z,91.10
2023-11-18T19:33:52.214Z,91.07
2023-11-18T19:36:42.979Z,91.05
2023-11-18T19:39:40.432Z,90.99
2023-11-18T19:42:31.630Z,90.96
2023-11-18T19:45:23.224Z,90.98
2023-11-18T19:48:14.744Z,90.98
2023-11-18T19:51:08.627Z,90.88
2023-11-18T19:53:59.646Z,90.89
2023-11-18T19:56:50.515Z,90.86
2023-11-18T19:59:41.380Z,90.76
2023-11-18T20:02:32.425Z,90.87
2023-11-18T20:05:23.532Z,90.84
2023-11-18T20:08:14.382Z,90.88
2023-11-18T20:11:10.667Z,91.07
2023-11-18T20:14:01.696Z,90.95
2023-11-18T20:16:52.841Z,90.92
2023-11-18T20:19:43.509Z,90.87
2023-11-18T20:22:36.588Z,90.88
2023-11-18T20:25:28.162Z,90.91
2023-11-18T20:28:18.898Z,90.80
2023-11-18T20:31:10.117Z,90.84
2023-11-18T20:34:00.917Z,90.88
2023-11-18T20:36:51.902Z,90.97
2023-11-18T20:39:42.657Z,91.08
2023-11-18T20:42:33.367Z,91.08
2023-11-18T20:45:25.157Z,91.07
2023-11-18T20:48:15.894Z,91.21
2023-11-18T20:51:08.917Z,91.20
2023-11-18T20:54:03.867Z,91.14
2023-11-18T20:56:54.678Z,91.30
2023-11-18T20:59:45.406Z,91.28
2023-11-18T21:02:37.111Z,91.34
2023-11-18T21:05:28.395Z,91.35
2023-11-18T21:08:19.367Z,91.31
2023-11-18T21:11:10.375Z,91.29
2023-11-18T21:14:01.286Z,91.30
2023-11-18T21:16:52.234Z,91.37
2023-11-18T21:19:43.269Z,91.46
2023-11-18T21:22:34.047Z,91.50
2023-11-18T21:25:24.843Z,91.62
2023-11-18T21:28:15.542Z,91.82
2023-11-18T21:31:08.210Z,91.77
2023-11-18T21:33:59.230Z,91.57
2023-11-18T21:36:49.934Z,91.30
2023-11-18T21:39:40.703Z,91.07
2023-11-18T21:42:32.406Z,90.99
2023-11-18T21:45:28.654Z,90.93
2023-11-18T21:48:22.199Z,90.88
2023-11-18T21:51:14.744Z,90.81
2023-11-18T21:54:05.975Z,90.83
2023-11-18T21:56:56.962Z,91.04
2023-11-18T21:59:47.790Z,91.00
2023-11-18T22:02:44.489Z,91.07
2023-11-18T22:05:35.541Z,91.14
2023-11-18T22:08:26.335Z,91.12
2023-11-18T22:11:20.255Z,91.26
2023-11-18T22:14:11.794Z,91.23
2023-11-18T22:17:02.615Z,91.15
2023-11-18T22:19:53.836Z,91.10
2023-11-18T22:22:44.594Z,90.96
2023-11-18T22:25:35.323Z,90.96
2023-11-18T22:28:26.080Z,90.95
2023-11-18T22:31:17.334Z,90.65
2023-11-18T22:34:08.184Z,90.73
2023-11-18T22:36:58.904Z,90.72
2023-11-18T22:39:49.894Z,90.58
2023-11-18T22:42:44.232Z,90.58
2023-11-18T22:45:35.051Z,90.74
2023-11-18T22:48:26.884Z,90.76
2023-11-18T22:51:17.817Z,90.60
2023-11-18T22:54:12.158Z,90.62
2023-11-18T22:57:03.612Z,90.75
2023-11-18T22:59:54.317Z,90.79
2023-11-18T23:02:45.127Z,90.95
2023-11-18T23:05:37.572Z,91.04
2023-11-18T23:08:28.427Z,91.10
2023-11-18T23:11:19.273Z,91.14
2023-11-18T23:14:10.052Z,91.05
2023-11-18T23:17:08.225Z,91.09
2023-11-18T23:20:00.328Z,91.14
2023-11-18T23:22:52.006Z,91.16
2023-11-18T23:25:42.753Z,91.14
2023-11-18T23:28:34.430Z,91.16
2023-11-18T23:31:26.218Z,91.14
2023-11-18T23:34:17.867Z,91.23
2023-11-18T23:37:09.072Z,91.29
2023-11-18T23:39:59.822Z,91.20
2023-11-18T23:42:50.717Z,91.31
2023-11-18T23:45:42.505Z,91.40
2023-11-18T23:48:38.095Z,91.35
2023-11-18T23:51:29.968Z,91.48
2023-11-18T23:54:24.986Z,91.38
2023-11-18T23:57:16.244Z,91.34
